El Paso, TX (88595)

7:14 AM MDT on August 22, 2014 (GMT -0600)
Shock | Change Station
CLOSE
Current Station
Personal Weather Station
Location: El Paso, TX
Elevation: 3924 ft
Nearby Weather Stations

Elev 3924 ft 31.76 °N, 106.33 °W | Updated 5 minutes ago

Light Rain
Light Rain
64.2 °F
Feels Like 64.2 °F
N
3.7
Wind Variable Wind from WNW

Today
High -- | Low -- °F
--% Chance of Precip.
Yesterday
High -- | Low -- °F
Precip. -- in
6:35 AM 7:41 PM
Waning Crescent, 8% visible
Pressure 29.91 in
Visibility 10.0 miles
Clouds Mostly Cloudy 11000 ft
Dew Point 63 °F
Humidity 96%
Rainfall 0.70 in
Snow Depth Not available.
UV 0 out of 12
Pollen 6.60 out of 12
Air Quality Not available.
Flu Activity Not available.
METAR KELP 221251Z 02008KT 10SM -RA BKN110 18/17 A3012 RMK AO2 SLP127 P0001 T01830167

More Conditions Fewer Conditions

Pressure 29.91 in
Visibility 10.0 miles
Clouds Mostly Cloudy 11000 ft
Dew Point 63 °F
Humidity 96%
Rainfall 0.70 in
Snow Depth Not available.
UV 0 out of 12
Pollen 6.60 out of 12
Air Quality Not available.
Flu Activity Not available.
METAR KELP 221251Z 02008KT 10SM -RA BKN110 18/17 A3012 RMK AO2 SLP127 P0001 T01830167

More Conditions Fewer Conditions

Nowcast | as of 4:00 am MDT on August 22, 2014

At 355 am...a large cluster of rain showers continues to track north thruogh the Borderland area. Some of these showers could have an embedded thunderstorm. Intermittent rain showers will vary from light to moderate in intensity with rain fall amounts up to half an inch over the next several hours. Winds gusts near thunderstorms could reach as high as 45 mph. Rain is likely through the rest of the morning through mid day Friday.

×

10-Day Weather Forecast

Almanac

Astronomy

Aug. 22, 2014 Rise Set
Actual Time 6:35 AM MDT 7:41 PM MDT
Civil Twilight 6:09 AM MDT 8:06 PM MDT
Nautical Twilight 5:39 AM MDT 8:36 PM MDT
Astronomical Twilight 5:08 AM MDT 9:07 PM MDT
Moon 4:04 AM MDT 5:48 PM MDT
Length of Visible Light 13h 56m
Length of Day
13h 06m
Tomorrow will be 1m 46s shorter.
Waning Crescent, 8% of the Moon is Illuminated
Today
Waning Crescent
Aug 25
New
Sep 2
First Quarter
Sep 8
Full
Sep 15
Last Quarter

Today's Extremes

State Highs State Lows

Community

WunderPhotos

Upload Photos

1,746,160 photos uploaded!

WunderBlogs® & News

Nearby

Snow Depth

Station Depth Elevation
No new snow has been reported.

Earthquake Activity

City Distance Mag. Time & Date
No recent earthquake activity has been reported nearby.
Minimum magnitude displayed is 2.5.

Coastal Water Temperatures

Place Temperature
No Stations Reporting

Nearby Weather Stations